Galesburg Municipal Airport


Codes: KGBG/GBG
Name: Galesburg Municipal Airport
City: Galesburg
Country: United States
Elevation: 764 ft.
Website:
Wikipedia:

Photos at Galesburg Municipal Airport


   Photos courtesy of SpottingLog. You can add your own sightings and photos by signing up for a free trial today.



No photos found.

Weather at Galesburg Municipal Airport


Time (UTC)DescriptionTempratureWindCloud coverageVisibilityPressureHumidity
25-Jun-2024 15:00Few Clouds28°C18 mph, SW22%10000m1008hPa75%
25-Jun-2024 18:00Scattered Clouds29°C13 mph, SW49%10000m1008hPa72%
25-Jun-2024 21:00Scattered Clouds33°C11 mph, W28%10000m1008hPa62%
26-Jun-2024 00:00Moderate Rain29°C7 mph, W36%10000m1007hPa78%
26-Jun-2024 03:00Light Rain24°C4 mph, NW44%10000m1007hPa87%
26-Jun-2024 06:00Heavy Intensity Rain21°C11 mph, E72%71m1008hPa96%
26-Jun-2024 09:00Heavy Intensity Rain21°C18 mph, E100%10000m1007hPa98%
26-Jun-2024 12:00Light Rain21°C7 mph, NW100%10000m1008hPa99%
26-Jun-2024 15:00Overcast Clouds24°C13 mph, N100%10000m1010hPa82%
26-Jun-2024 18:00Broken Clouds27°C13 mph, N68%10000m1011hPa60%
26-Jun-2024 21:00Clear Sky26°C13 mph, N0%10000m1011hPa64%
27-Jun-2024 00:00Clear Sky23°C11 mph, N0%10000m1012hPa76%
27-Jun-2024 03:00Clear Sky18°C7 mph, N0%10000m1013hPa91%
27-Jun-2024 06:00Clear Sky16°C7 mph, N0%10000m1015hPa96%
27-Jun-2024 09:00Clear Sky15°C4 mph, NE2%10000m1015hPa98%
27-Jun-2024 12:00Scattered Clouds16°C7 mph, E37%10000m1015hPa93%
27-Jun-2024 15:00Broken Clouds20°C9 mph, E83%10000m1015hPa78%
27-Jun-2024 18:00Overcast Clouds22°C7 mph, SE87%10000m1015hPa70%
27-Jun-2024 21:00Overcast Clouds23°C4 mph, SE100%10000m1013hPa71%
28-Jun-2024 00:00Overcast Clouds22°C9 mph, SE100%10000m1012hPa78%
28-Jun-2024 03:00Overcast Clouds21°C9 mph, SE100%10000m1011hPa77%
28-Jun-2024 06:00Overcast Clouds19°C9 mph, SE91%10000m1010hPa80%
28-Jun-2024 09:00Light Rain18°C11 mph, SE91%10000m1010hPa86%
28-Jun-2024 12:00Moderate Rain18°C13 mph, SE95%10000m1009hPa97%
28-Jun-2024 15:00Heavy Intensity Rain18°C20 mph, S100%2273m1007hPa98%
28-Jun-2024 18:00Moderate Rain19°C20 mph, S100%10000m1006hPa97%
28-Jun-2024 21:00Moderate Rain22°C16 mph, S100%10000m1005hPa95%
29-Jun-2024 00:00Light Rain24°C13 mph, S98%10000m1005hPa93%
29-Jun-2024 03:00Moderate Rain21°C9 mph, S85%10000m1006hPa98%
29-Jun-2024 06:00Moderate Rain22°C11 mph, S93%10000m1006hPa98%
29-Jun-2024 09:00Light Rain23°C11 mph, W100%10000m1008hPa98%
29-Jun-2024 12:00Overcast Clouds22°C7 mph, NW100%10000m1010hPa97%
29-Jun-2024 15:00Broken Clouds25°C9 mph, NW66%10000m1013hPa74%
29-Jun-2024 18:00Scattered Clouds26°C13 mph, NW38%10000m1015hPa66%
29-Jun-2024 21:00Broken Clouds25°C16 mph, NW71%10000m1016hPa73%
30-Jun-2024 00:00Broken Clouds20°C16 mph, NW68%10000m1018hPa80%
30-Jun-2024 03:00Broken Clouds16°C13 mph, N62%10000m1021hPa82%
30-Jun-2024 06:00Scattered Clouds13°C9 mph, N32%10000m1024hPa88%
30-Jun-2024 09:00Scattered Clouds11°C9 mph, N35%10000m1024hPa92%
30-Jun-2024 12:00Scattered Clouds11°C9 mph, NE50%10000m1027hPa88%